Time;durP1;ratioP1;P1;durP2;ratioP2;P2;SDS_P1;SDS_P2;PMS_P1;PMS_P2;Temp;Humidity;BMP_temperature;BMP_pressure;BME280_temperature;BME280_humidity;BME280_pressure;Samples;Min_cycle;Max_cycle;Signal;HPM_P1;HPM_P2
2021/12/16 00:01:46;;;;;;;71.55;38.58;;;9.80;99.90;;;;;;4864147;29;20452;-93
2021/12/16 00:05:02;;;;;;;70.38;37.22;;;9.80;99.90;;;;;;4902031;29;20080;-94
2021/12/16 00:09:54;;;;;;;82.28;40.78;;;9.70;99.90;;;;;;4923750;29;20119;-93
2021/12/16 00:31:51;;;;;;;86.63;45.70;;;9.60;99.90;;;;;;4921677;29;20087;-92
2021/12/16 00:34:16;;;;;;;91.07;47.63;;;9.60;99.90;;;;;;4920868;29;20032;-91
2021/12/16 00:36:44;;;;;;;85.80;43.55;;;9.60;99.90;;;;;;4904671;29;20115;-91
2021/12/16 00:39:14;;;;;;;88.25;44.85;;;9.60;99.90;;;;;;4904346;29;20020;-92
2021/12/16 00:41:42;;;;;;;88.15;45.83;;;9.60;99.90;;;;;;4904284;29;20060;-92
2021/12/16 00:49:22;;;;;;;90.15;45.28;;;9.60;99.90;;;;;;4921277;29;20048;-91
2021/12/16 00:54:38;;;;;;;82.32;43.30;;;9.60;99.90;;;;;;4920574;29;20103;-90
2021/12/16 00:57:10;;;;;;;83.15;43.83;;;9.60;99.90;;;;;;4902997;29;20040;-92
2021/12/16 00:59:39;;;;;;;90.22;44.83;;;9.60;99.90;;;;;;4903589;29;20039;-91
2021/12/16 01:02:20;;;;;;;89.88;44.70;;;9.60;99.90;;;;;;4903692;29;20395;-91
2021/12/16 01:45:57;;;;;;;89.60;43.60;;;9.60;99.90;;;;;;4901153;29;20024;-92
2021/12/16 01:51:00;;;;;;;81.13;42.88;;;9.50;99.90;;;;;;4920058;29;20043;-91
2021/12/16 01:56:43;;;;;;;75.25;38.80;;;9.50;99.90;;;;;;4888194;29;20040;-90
2021/12/16 01:59:16;;;;;;;84.45;41.55;;;9.50;99.90;;;;;;4902734;29;20032;-91
2021/12/16 02:01:44;;;;;;;82.25;41.80;;;9.50;99.90;;;;;;4902456;29;20051;-91
2021/12/16 02:04:20;;;;;;;79.68;42.42;;;9.50;99.90;;;;;;4906824;29;20036;-91
2021/12/16 02:09:39;;;;;;;77.40;40.50;;;9.50;99.90;;;;;;4934477;29;20047;-92
2021/12/16 02:29:16;;;;;;;69.82;37.45;;;9.30;99.90;;;;;;4919350;29;20092;-92
2021/12/16 02:36:53;;;;;;;73.25;39.90;;;9.20;99.90;;;;;;4918067;29;20710;-92
2021/12/16 02:39:26;;;;;;;72.38;39.17;;;9.20;99.90;;;;;;4901516;29;20028;-93
2021/12/16 02:41:59;;;;;;;;;;;9.20;99.90;;;;;;4902454;29;20498;-93
2021/12/16 02:50:04;;;;;;;66.63;35.95;;;9.20;99.90;;;;;;4917810;29;20050;-94
2021/12/16 02:52:30;;;;;;;65.50;35.03;;;9.20;99.90;;;;;;4901272;29;20028;-93
2021/12/16 02:54:56;;;;;;;69.05;35.28;;;9.20;99.90;;;;;;4901739;29;20084;-94
2021/12/16 02:57:24;;;;;;;71.90;37.13;;;9.20;99.90;;;;;;4901784;29;20489;-93
2021/12/16 02:59:52;;;;;;;72.43;38.67;;;9.20;99.90;;;;;;4902467;29;20031;-93
2021/12/16 03:02:19;;;;;;;82.05;43.08;;;9.20;99.90;;;;;;4901110;29;20574;-94
2021/12/16 03:04:49;;;;;;;68.25;38.85;;;9.20;99.90;;;;;;4901840;29;20064;-93
2021/12/16 03:07:16;;;;;;;64.93;38.08;;;9.20;99.90;;;;;;4901778;29;20024;-94
2021/12/16 03:18:15;;;;;;;57.67;31.38;;;9.00;99.90;;;;;;4897520;29;20028;-94
2021/12/16 03:20:49;;;;;;;56.65;31.88;;;9.00;99.90;;;;;;4902269;29;20058;-92
2021/12/16 03:37:01;;;;;;;62.95;34.38;;;8.90;99.90;;;;;;4918634;29;20032;-93
2021/12/16 03:39:29;;;;;;;64.50;36.47;;;9.00;99.90;;;;;;4903220;29;20028;-93
2021/12/16 03:41:54;;;;;;;62.90;35.58;;;9.00;99.90;;;;;;4904827;29;20028;-92
2021/12/16 03:44:27;;;;;;;61.92;34.60;;;8.90;99.90;;;;;;4904055;29;20489;-93
2021/12/16 03:46:53;;;;;;;59.22;33.92;;;9.00;99.90;;;;;;4904191;29;20051;-93
2021/12/16 03:49:25;;;;;;;63.13;33.88;;;9.00;99.90;;;;;;4903986;29;20024;-92
2021/12/16 03:51:55;;;;;;;59.25;34.03;;;9.00;99.90;;;;;;4903802;29;20020;-92
2021/12/16 03:54:31;;;;;;;53.92;30.77;;;9.00;99.90;;;;;;4903850;29;20074;-92
2021/12/16 03:56:59;;;;;;;58.40;31.85;;;9.00;99.90;;;;;;4904662;29;20130;-91
2021/12/16 03:59:29;;;;;;;61.90;33.70;;;9.10;99.90;;;;;;4905434;29;20031;-92
2021/12/16 04:01:58;;;;;;;60.78;32.78;;;9.10;99.90;;;;;;4904977;29;20036;-92
2021/12/16 04:04:24;;;;;;;59.10;32.72;;;9.10;99.90;;;;;;4917851;29;20036;-93
2021/12/16 04:06:50;;;;;;;61.63;34.28;;;9.00;99.90;;;;;;4925233;29;20028;-92
2021/12/16 04:09:18;;;;;;;65.10;34.47;;;9.10;99.90;;;;;;4927792;29;20024;-93
2021/12/16 04:11:55;;;;;;;70.03;37.03;;;9.00;99.90;;;;;;4927796;29;20080;-92
2021/12/16 04:14:20;;;;;;;73.45;38.00;;;9.10;99.90;;;;;;4926691;29;20008;-92
2021/12/16 04:16:51;;;;;;;71.13;37.53;;;9.10;99.90;;;;;;4927950;29;20012;-93
2021/12/16 04:19:22;;;;;;;71.32;38.20;;;9.10;99.90;;;;;;4927585;29;20021;-92
2021/12/16 04:21:53;;;;;;;76.28;37.25;;;9.10;99.90;;;;;;4927405;29;20020;-92
2021/12/16 04:24:19;;;;;;;75.93;39.72;;;9.10;99.90;;;;;;4927641;29;20032;-92
2021/12/16 04:26:46;;;;;;;85.50;41.38;;;9.10;99.90;;;;;;4927065;29;20088;-90
2021/12/16 04:29:13;;;;;;;71.57;37.70;;;9.10;99.90;;;;;;4925833;29;20008;-92
2021/12/16 04:31:39;;;;;;;85.43;42.42;;;9.10;99.90;;;;;;4926158;29;20009;-91
2021/12/16 04:34:07;;;;;;;76.88;38.63;;;9.10;99.90;;;;;;4925330;29;20020;-92
2021/12/16 04:36:33;;;;;;;76.95;38.05;;;9.10;99.90;;;;;;4926480;29;20024;-92
2021/12/16 04:39:01;;;;;;;71.40;35.85;;;9.10;99.90;;;;;;4918933;29;20040;-91
2021/12/16 04:41:27;;;;;;;85.32;39.90;;;9.10;99.90;;;;;;4916423;29;20031;-93
2021/12/16 04:43:55;;;;;;;91.18;41.50;;;9.10;99.90;;;;;;4900464;29;20032;-92
2021/12/16 04:46:27;;;;;;;85.28;41.20;;;9.10;99.90;;;;;;4907646;29;20044;-90
2021/12/16 04:48:56;;;;;;;85.45;41.15;;;9.00;99.90;;;;;;4906922;29;20029;-92
2021/12/16 04:51:26;;;;;;;89.82;40.55;;;9.00;99.90;;;;;;4912260;29;20545;-92
2021/12/16 04:53:52;;;;;;;76.03;36.80;;;9.00;99.90;;;;;;4918107;29;20048;-91
2021/12/16 04:56:19;;;;;;;88.82;41.28;;;9.00;99.90;;;;;;4920600;29;20033;-89
2021/12/16 04:58:52;;;;;;;87.88;40.92;;;9.00;99.90;;;;;;4905303;29;20410;-89
2021/12/16 05:01:19;;;;;;;70.70;35.13;;;8.90;99.90;;;;;;4890057;29;20098;-91
2021/12/16 05:03:45;;;;;;;75.65;34.75;;;8.90;99.90;;;;;;4898800;29;20044;-92
2021/12/16 05:06:12;;;;;;;77.10;36.75;;;8.90;99.90;;;;;;4912478;29;20025;-92
2021/12/16 05:08:39;;;;;;;75.43;36.08;;;8.90;99.90;;;;;;4898707;29;20104;-91
2021/12/16 05:11:09;;;;;;;71.13;35.25;;;8.90;99.90;;;;;;4913790;29;20021;-92
2021/12/16 05:13:36;;;;;;;72.35;33.33;;;9.00;99.90;;;;;;4901051;29;20066;-92
2021/12/16 05:16:05;;;;;;;67.60;31.48;;;8.90;99.90;;;;;;4902900;29;20005;-92
2021/12/16 05:18:34;;;;;;;66.95;29.55;;;8.90;99.90;;;;;;4893204;29;20028;-91
2021/12/16 05:21:07;;;;;;;66.18;31.13;;;9.00;99.90;;;;;;4911316;29;20057;-90
2021/12/16 05:26:21;;;;;;;69.65;32.30;;;9.00;99.90;;;;;;4906181;29;20276;-92
2021/12/16 05:28:54;;;;;;;69.00;32.70;;;9.00;99.90;;;;;;4906139;29;20032;-92
2021/12/16 05:31:22;;;;;;;71.45;33.05;;;9.00;99.90;;;;;;4905455;29;20115;-91
2021/12/16 05:33:49;;;;;;;69.43;32.00;;;8.90;99.90;;;;;;4904935;29;20118;-91
2021/12/16 05:36:15;;;;;;;70.13;31.55;;;9.00;99.90;;;;;;4904605;29;20025;-88
2021/12/16 05:38:41;;;;;;;64.03;30.85;;;8.90;99.90;;;;;;4909217;29;20059;-89
2021/12/16 05:41:10;;;;;;;74.38;33.10;;;8.90;99.90;;;;;;4894572;29;20048;-91
2021/12/16 05:43:38;;;;;;;71.00;30.95;;;8.90;99.90;;;;;;4912261;29;20608;-89
2021/12/16 05:46:05;;;;;;;68.30;30.00;;;8.90;99.90;;;;;;4895656;29;20067;-88
2021/12/16 05:48:35;;;;;;;63.45;28.35;;;8.90;99.90;;;;;;4894876;29;20068;-89
2021/12/16 05:51:06;;;;;;;61.53;28.35;;;8.90;99.90;;;;;;4892659;29;20045;-91
2021/12/16 05:53:32;;;;;;;64.20;29.98;;;8.90;99.90;;;;;;4908634;29;20036;-89
2021/12/16 05:56:18;;;;;;;70.82;31.10;;;9.00;99.90;;;;;;4898210;29;20029;-93
2021/12/16 05:58:55;;;;;;;;;;;8.90;99.90;;;;;;4916426;29;20514;-92
2021/12/16 06:01:28;;;;;;;64.07;27.85;;;8.90;99.90;;;;;;4914563;29;19907;-92
2021/12/16 06:03:55;;;;;;;62.25;28.23;;;8.90;99.90;;;;;;4918085;29;20036;-92
2021/12/16 06:06:26;;;;;;;66.20;29.77;;;8.90;99.90;;;;;;4917604;29;20414;-93
2021/12/16 06:08:53;;;;;;;73.53;34.60;;;8.90;99.90;;;;;;4899365;29;20024;-91
2021/12/16 06:11:22;;;;;;;72.10;32.95;;;8.80;99.90;;;;;;4914143;29;20025;-92
2021/12/16 06:14:02;;;;;;;64.60;28.77;;;8.80;99.90;;;;;;4894424;29;20064;-91
2021/12/16 06:27:48;;;;;;;66.65;26.65;;;8.90;99.90;;;;;;4896241;29;20428;-87
2021/12/16 06:30:17;;;;;;;64.95;30.63;;;8.80;99.90;;;;;;4872635;29;20067;-88
2021/12/16 06:32:43;;;;;;;60.33;28.52;;;8.80;99.90;;;;;;4867112;29;20032;-88
2021/12/16 06:35:11;;;;;;;63.22;28.90;;;8.80;99.90;;;;;;4880610;29;20069;-86
2021/12/16 06:37:37;;;;;;;65.22;29.05;;;8.80;99.90;;;;;;4881231;29;20087;-86
2021/12/16 06:40:05;;;;;;;61.20;27.85;;;8.70;99.90;;;;;;4881273;29;20036;-87
2021/12/16 06:42:33;;;;;;;54.40;26.58;;;8.70;99.90;;;;;;4880511;29;20081;-86
2021/12/16 06:45:06;;;;;;;53.97;25.77;;;8.70;99.90;;;;;;4881089;29;20040;-87
2021/12/16 06:48:14;;;;;;;53.83;25.90;;;8.70;99.90;;;;;;4900069;29;20044;-87
2021/12/16 06:53:08;;;;;;;56.35;25.92;;;8.60;99.90;;;;;;4918702;29;20034;-87
2021/12/16 06:55:47;;;;;;;49.33;25.25;;;8.60;99.90;;;;;;4905591;29;20026;-87
2021/12/16 06:58:37;;;;;;;48.67;23.48;;;8.70;99.90;;;;;;4920913;29;20047;-87
2021/12/16 07:01:11;;;;;;;48.63;23.70;;;8.70;99.90;;;;;;4919105;29;20122;-88
2021/12/16 07:03:47;;;;;;;50.70;22.88;;;8.70;99.90;;;;;;4905545;29;20043;-85
2021/12/16 07:06:15;;;;;;;50.22;23.23;;;8.70;99.90;;;;;;4915838;29;20031;-87
2021/12/16 07:08:41;;;;;;;46.35;22.38;;;8.70;99.90;;;;;;4904312;29;20482;-86
2021/12/16 07:11:06;;;;;;;45.17;22.60;;;8.70;99.90;;;;;;4919472;29;20075;-87
2021/12/16 07:13:40;;;;;;;53.22;23.55;;;8.80;99.90;;;;;;4905052;29;20088;-87
2021/12/16 07:16:06;;;;;;;52.65;24.35;;;8.70;99.90;;;;;;4914619;29;20024;-89
2021/12/16 07:18:31;;;;;;;49.80;24.35;;;8.70;99.90;;;;;;4922880;29;20156;-86
2021/12/16 07:20:57;;;;;;;44.25;21.92;;;8.70;99.90;;;;;;4923335;29;20081;-88
2021/12/16 07:23:23;;;;;;;43.28;22.17;;;8.70;99.90;;;;;;4922392;29;20043;-88
2021/12/16 07:25:49;;;;;;;45.30;22.05;;;8.70;99.90;;;;;;4909553;29;20862;-87
2021/12/16 07:28:15;;;;;;;41.10;22.20;;;8.70;99.90;;;;;;4914070;29;20020;-88
2021/12/16 07:30:42;;;;;;;43.45;21.60;;;8.70;99.90;;;;;;4905133;29;20039;-90
2021/12/16 07:33:11;;;;;;;40.85;21.58;;;8.70;99.90;;;;;;4905269;29;20027;-90
2021/12/16 07:35:37;;;;;;;45.20;21.13;;;8.70;99.90;;;;;;4920925;29;20016;-88
2021/12/16 07:38:04;;;;;;;43.70;20.33;;;8.60;99.90;;;;;;4904493;29;20032;-89
2021/12/16 07:40:31;;;;;;;45.47;21.13;;;8.60;99.90;;;;;;4904062;29;20504;-90
2021/12/16 07:45:43;;;;;;;39.47;19.50;;;8.70;99.90;;;;;;4921015;29;20036;-90
2021/12/16 07:48:15;;;;;;;40.42;21.80;;;8.70;99.90;;;;;;4922782;29;20505;-91
2021/12/16 07:50:44;;;;;;;43.22;20.55;;;8.60;99.90;;;;;;4920465;29;20028;-91
2021/12/16 07:53:10;;;;;;;46.03;20.85;;;8.60;99.90;;;;;;4918896;29;20560;-90
2021/12/16 07:55:39;;;;;;;44.03;20.60;;;8.60;99.90;;;;;;4918402;29;20020;-90
2021/12/16 07:58:05;;;;;;;42.67;20.40;;;8.60;99.90;;;;;;4915348;29;20036;-91
2021/12/16 08:00:34;;;;;;;37.45;20.60;;;8.60;99.90;;;;;;4910747;29;20093;-90
2021/12/16 08:03:05;;;;;;;43.15;19.67;;;8.60;99.90;;;;;;4912184;29;20549;-91
2021/12/16 08:05:35;;;;;;;42.22;19.92;;;8.60;99.90;;;;;;4905523;29;20024;-91
2021/12/16 08:08:01;;;;;;;38.05;19.95;;;8.60;99.90;;;;;;4890662;29;20099;-91
2021/12/16 08:10:27;;;;;;;32.42;19.00;;;8.60;99.90;;;;;;4904930;29;20034;-91
2021/12/16 08:12:53;;;;;;;43.08;20.65;;;8.60;99.90;;;;;;4904901;29;20122;-92
2021/12/16 08:15:19;;;;;;;36.00;19.00;;;8.60;99.90;;;;;;4905372;29;20027;-91
2021/12/16 08:17:45;;;;;;;41.53;19.80;;;8.60;99.90;;;;;;4904039;29;20029;-91
2021/12/16 08:20:16;;;;;;;37.75;19.88;;;8.70;99.90;;;;;;4904622;29;20020;-91
2021/12/16 08:22:44;;;;;;;37.10;19.35;;;8.70;99.90;;;;;;4903819;29;20115;-89
2021/12/16 08:25:13;;;;;;;39.03;19.20;;;8.60;99.90;;;;;;4903225;29;20056;-91
2021/12/16 08:27:39;;;;;;;35.67;20.00;;;8.60;99.90;;;;;;4903826;29;20101;-90
2021/12/16 08:30:09;;;;;;;44.08;21.95;;;8.70;99.90;;;;;;4885516;29;20403;-92
2021/12/16 08:32:34;;;;;;;37.92;19.98;;;8.70;99.90;;;;;;4884680;29;20031;-92
2021/12/16 08:35:04;;;;;;;39.03;20.67;;;8.70;99.90;;;;;;4900067;29;20020;-89
2021/12/16 08:37:30;;;;;;;37.75;20.55;;;8.70;99.90;;;;;;4903518;29;20060;-89
2021/12/16 08:39:56;;;;;;;37.47;21.23;;;8.70;99.90;;;;;;4903318;29;20130;-91
2021/12/16 08:42:22;;;;;;;42.00;22.50;;;8.70;99.90;;;;;;4904061;29;20089;-90
2021/12/16 08:44:48;;;;;;;43.90;21.88;;;8.70;99.90;;;;;;4903862;29;20506;-90
2021/12/16 08:47:16;;;;;;;37.78;19.95;;;8.60;99.90;;;;;;4903600;29;20046;-90
2021/12/16 08:49:42;;;;;;;36.95;19.50;;;8.60;99.90;;;;;;4902739;29;20020;-88
2021/12/16 08:52:13;;;;;;;47.58;20.52;;;8.60;99.90;;;;;;4903656;29;20024;-88
2021/12/16 08:54:39;;;;;;;33.63;19.17;;;8.60;99.90;;;;;;4903909;29;20064;-88
2021/12/16 08:57:06;;;;;;;40.88;20.40;;;8.70;99.90;;;;;;4914909;29;20028;-88
2021/12/16 08:59:33;;;;;;;39.90;19.63;;;8.70;99.90;;;;;;4898225;29;20446;-87
2021/12/16 09:02:00;;;;;;;37.22;20.65;;;8.70;99.90;;;;;;4889181;29;20024;-89
2021/12/16 09:04:28;;;;;;;34.83;19.70;;;8.80;99.90;;;;;;4903444;29;20546;-90
2021/12/16 09:06:57;;;;;;;30.95;18.70;;;8.80;99.90;;;;;;4914435;29;20043;-89
2021/12/16 09:09:23;;;;;;;44.10;21.52;;;8.80;99.90;;;;;;4919075;29;20035;-90
2021/12/16 09:12:07;;;;;;;41.78;21.25;;;8.80;99.90;;;;;;4918821;29;20033;-90
2021/12/16 09:14:35;;;;;;;;;;;8.80;99.90;;;;;;4911301;29;20031;-90
2021/12/16 09:17:02;;;;;;;38.92;18.77;;;8.80;99.90;;;;;;4903718;29;19907;-90
2021/12/16 09:19:28;;;;;;;41.45;20.02;;;8.80;99.90;;;;;;4902951;29;20367;-89
2021/12/16 09:21:54;;;;;;;39.38;19.95;;;8.80;99.90;;;;;;4902871;29;20110;-89
2021/12/16 09:24:20;;;;;;;38.70;19.63;;;8.80;99.90;;;;;;4903380;29;20618;-88
2021/12/16 09:26:46;;;;;;;38.88;18.80;;;8.80;99.90;;;;;;4910746;29;20048;-88
2021/12/16 09:29:12;;;;;;;50.58;23.13;;;8.80;99.90;;;;;;4913568;29;20105;-88
2021/12/16 09:31:39;;;;;;;46.08;21.67;;;8.80;99.90;;;;;;4902703;29;20020;-87
2021/12/16 09:34:07;;;;;;;42.60;21.08;;;8.70;99.90;;;;;;4902366;29;20777;-87
2021/12/16 09:36:37;;;;;;;44.33;22.35;;;8.70;99.90;;;;;;4907006;29;20033;-86
2021/12/16 09:39:06;;;;;;;41.40;21.13;;;8.70;99.90;;;;;;4917144;29;20430;-87
2021/12/16 09:41:33;;;;;;;36.63;20.67;;;8.80;99.90;;;;;;4916958;29;20024;-89
2021/12/16 09:44:00;;;;;;;44.15;21.05;;;8.80;99.90;;;;;;4902173;29;20032;-87
2021/12/16 09:46:28;;;;;;;44.33;21.80;;;8.80;99.90;;;;;;4906527;29;20136;-88
2021/12/16 09:48:56;;;;;;;47.55;22.38;;;8.80;99.90;;;;;;4906446;29;20025;-87
2021/12/16 09:51:25;;;;;;;44.28;21.98;;;8.80;99.90;;;;;;4901201;29;20454;-88
2021/12/16 09:53:56;;;;;;;48.38;23.70;;;8.90;99.90;;;;;;4901012;29;20466;-89
2021/12/16 09:56:23;;;;;;;44.75;21.33;;;8.80;99.90;;;;;;4906547;29;20041;-85
2021/12/16 09:58:51;;;;;;;50.85;22.13;;;8.80;99.90;;;;;;4913434;29;20020;-89
2021/12/16 10:01:19;;;;;;;44.10;21.00;;;8.80;99.90;;;;;;4904343;29;20028;-88
2021/12/16 10:03:47;;;;;;;44.28;20.33;;;8.80;99.90;;;;;;4901293;29;20036;-86
2021/12/16 10:06:15;;;;;;;46.67;18.90;;;8.90;99.90;;;;;;4905513;29;20024;-88
2021/12/16 10:08:42;;;;;;;41.65;17.88;;;9.00;99.90;;;;;;4909732;29;20107;-88
2021/12/16 10:11:08;;;;;;;39.28;18.95;;;8.90;99.90;;;;;;4901647;29;20024;-88
2021/12/16 10:13:45;;;;;;;40.45;19.23;;;8.90;99.90;;;;;;4919613;29;20099;-88
2021/12/16 10:18:56;;;;;;;36.95;16.35;;;8.90;99.90;;;;;;4919050;29;20496;-89
2021/12/16 10:21:22;;;;;;;33.70;16.30;;;8.90;99.90;;;;;;4901612;29;20024;-87
2021/12/16 10:23:48;;;;;;;37.28;16.92;;;8.90;99.90;;;;;;4918557;29;20059;-89
2021/12/16 10:26:22;;;;;;;35.60;17.40;;;9.00;99.90;;;;;;4902095;29;20025;-88
2021/12/16 10:28:51;;;;;;;37.53;17.13;;;9.00;99.90;;;;;;4907319;29;20028;-88
2021/12/16 10:31:19;;;;;;;38.50;17.52;;;9.10;99.90;;;;;;4918818;29;20024;-87
2021/12/16 10:33:59;;;;;;;47.45;20.13;;;9.10;99.90;;;;;;4902279;29;20036;-89
2021/12/16 10:36:27;;;;;;;37.92;19.00;;;9.00;99.90;;;;;;4906275;29;20096;-89
2021/12/16 10:38:59;;;;;;;35.92;18.73;;;9.00;99.90;;;;;;4917645;29;20028;-89
2021/12/16 10:41:27;;;;;;;38.38;19.25;;;9.10;99.90;;;;;;4917598;29;20545;-89
2021/12/16 10:44:06;;;;;;;36.25;18.60;;;9.10;99.90;;;;;;4901605;29;20040;-90
2021/12/16 10:46:36;;;;;;;40.50;21.10;;;9.10;99.90;;;;;;4917748;29;20135;-89
2021/12/16 10:49:19;;;;;;;38.05;19.55;;;9.10;99.90;;;;;;4921730;29;20053;-88
2021/12/16 10:51:47;;;;;;;43.50;20.67;;;9.10;99.90;;;;;;4922249;29;20032;-89
2021/12/16 10:54:22;;;;;;;36.92;19.67;;;9.10;99.90;;;;;;4922486;29;20500;-89
2021/12/16 10:56:53;;;;;;;38.63;18.25;;;9.20;99.90;;;;;;4924561;29;20024;-89
2021/12/16 10:59:21;;;;;;;48.17;22.20;;;9.20;99.90;;;;;;4914162;29;20028;-89
2021/12/16 11:01:59;;;;;;;43.10;21.80;;;9.20;99.90;;;;;;4908013;29;20032;-89
2021/12/16 11:04:32;;;;;;;36.63;20.02;;;9.20;99.90;;;;;;4906687;29;20083;-89
2021/12/16 11:07:00;;;;;;;43.50;19.23;;;9.20;99.90;;;;;;4906698;29;20474;-89
2021/12/16 11:09:31;;;;;;;38.03;20.27;;;9.20;99.90;;;;;;4905090;29;20055;-90
2021/12/16 11:12:26;;;;;;;45.88;22.42;;;9.20;99.90;;;;;;4922220;29;20502;-89
2021/12/16 11:14:54;;;;;;;48.33;21.85;;;9.10;99.90;;;;;;4904637;29;20505;-89
2021/12/16 11:17:24;;;;;;;45.45;20.63;;;9.10;99.90;;;;;;4905311;29;20048;-88
2021/12/16 11:20:10;;;;;;;43.97;21.17;;;9.10;99.90;;;;;;4907365;29;20059;-89
2021/12/16 11:22:38;;;;;;;51.15;21.98;;;9.00;99.90;;;;;;4905868;29;20036;-89
2021/12/16 11:25:30;;;;;;;47.75;21.10;;;9.00;99.90;;;;;;4928706;29;20114;-89
2021/12/16 11:28:24;;;;;;;38.88;21.13;;;8.90;99.90;;;;;;4909174;29;20064;-88
2021/12/16 11:31:03;;;;;;;;;;;8.90;99.90;;;;;;4906324;29;20035;-87
2021/12/16 11:33:48;;;;;;;38.17;20.48;;;8.90;99.90;;;;;;4890233;29;20341;-90
2021/12/16 11:36:23;;;;;;;39.60;18.73;;;8.80;99.90;;;;;;4905994;29;20062;-90
2021/12/16 11:38:54;;;;;;;36.97;19.63;;;8.80;99.90;;;;;;4923313;29;20036;-89
2021/12/16 11:41:56;;;;;;;40.65;20.75;;;8.90;99.90;;;;;;4906510;29;20075;-89
2021/12/16 11:44:32;;;;;;;43.88;20.08;;;8.90;99.90;;;;;;4856312;29;20068;-87
2021/12/16 11:47:10;;;;;;;41.05;20.30;;;8.90;99.90;;;;;;4923491;29;20131;-89
2021/12/16 11:49:43;;;;;;;42.22;21.75;;;8.90;99.90;;;;;;4903962;29;20024;-88
2021/12/16 11:52:19;;;;;;;37.60;19.40;;;8.90;99.90;;;;;;4919544;29;20044;-88
2021/12/16 11:54:47;;;;;;;44.45;20.42;;;9.00;99.90;;;;;;4907684;29;20088;-89
2021/12/16 11:57:54;;;;;;;46.95;20.55;;;9.00;99.90;;;;;;4926868;29;20024;-88
2021/12/16 12:00:26;;;;;;;40.90;20.85;;;9.00;99.90;;;;;;4812409;29;20586;-88
2021/12/16 12:03:00;;;;;;;57.53;23.48;;;9.00;99.90;;;;;;4832178;29;20072;-89
2021/12/16 12:05:33;;;;;;;40.13;20.02;;;9.00;99.90;;;;;;4846399;29;20044;-90
2021/12/16 12:08:09;;;;;;;;;;;9.00;99.90;;;;;;4828063;29;20034;-89
2021/12/16 12:10:59;;;;;;;47.97;21.27;;;9.00;99.90;;;;;;4822856;29;19980;-88
2021/12/16 12:13:35;;;;;;;40.45;19.50;;;9.00;99.90;;;;;;4920485;29;20030;-88
2021/12/16 12:16:06;;;;;;;39.95;19.00;;;9.00;99.90;;;;;;4920910;29;20434;-87
2021/12/16 12:18:38;;;;;;;40.60;19.90;;;9.00;99.90;;;;;;4910850;29;20032;-88
2021/12/16 12:21:22;;;;;;;37.45;20.42;;;9.00;99.90;;;;;;4919629;29;20032;-87
2021/12/16 12:23:53;;;;;;;38.15;21.30;;;9.10;99.90;;;;;;4920103;29;20036;-88
2021/12/16 12:26:20;;;;;;;39.97;19.75;;;9.10;99.90;;;;;;4918517;29;20028;-87
2021/12/16 12:28:48;;;;;;;38.13;19.40;;;9.10;99.90;;;;;;4906299;29;20486;-88
2021/12/16 12:31:16;;;;;;;42.60;19.65;;;9.10;99.90;;;;;;4902778;29;20031;-88
2021/12/16 12:33:42;;;;;;;40.30;19.90;;;9.20;99.90;;;;;;4918753;29;20100;-86
2021/12/16 12:36:08;;;;;;;34.45;19.48;;;9.20;99.90;;;;;;4911514;29;20028;-87
2021/12/16 12:38:37;;;;;;;43.55;19.80;;;9.20;99.90;;;;;;4920700;29;20028;-89
2021/12/16 12:41:05;;;;;;;41.00;19.58;;;9.20;99.90;;;;;;4886150;29;20511;-89
2021/12/16 12:43:35;;;;;;;40.58;18.63;;;9.20;99.90;;;;;;4893960;29;20047;-88
2021/12/16 12:46:05;;;;;;;44.13;19.52;;;9.20;99.90;;;;;;4897783;29;20040;-88
2021/12/16 12:48:52;;;;;;;44.50;19.88;;;9.20;99.90;;;;;;4908783;29;20198;-87
2021/12/16 12:51:28;;;;;;;38.58;19.92;;;9.20;99.90;;;;;;4921034;29;20027;-89
2021/12/16 12:53:54;;;;;;;35.60;19.73;;;9.20;99.90;;;;;;4929196;29;20059;-86
2021/12/16 12:56:31;;;;;;;47.05;21.42;;;9.20;99.90;;;;;;4939538;29;20023;-88
2021/12/16 12:59:04;;;;;;;36.17;20.02;;;9.20;99.90;;;;;;4937486;29;20043;-86
2021/12/16 13:01:55;;;;;;;33.65;18.95;;;9.20;99.90;;;;;;4907807;29;20032;-86
2021/12/16 13:04:26;;;;;;;34.88;19.77;;;9.20;99.90;;;;;;4919751;29;20035;-87
2021/12/16 13:07:04;;;;;;;44.95;21.63;;;9.20;99.90;;;;;;4926384;29;20033;-90
2021/12/16 13:09:44;;;;;;;35.08;19.55;;;9.30;99.90;;;;;;4925349;29;20034;-90
2021/12/16 13:12:30;;;;;;;31.92;18.90;;;9.30;99.90;;;;;;4925052;29;20044;-88
2021/12/16 13:15:07;;;;;;;41.50;20.02;;;9.30;99.90;;;;;;4924173;29;20040;-90
2021/12/16 13:23:30;;;;;;;36.30;18.15;;;9.20;99.90;;;;;;4939199;29;20070;-87
2021/12/16 13:31:53;;;;;;;30.60;16.85;;;9.20;99.90;;;;;;4920576;29;20024;-89
2021/12/16 13:34:43;;;;;;;30.85;18.10;;;9.20;99.90;;;;;;4923223;29;20060;-90
2021/12/16 13:37:24;;;;;;;28.13;17.50;;;9.10;99.90;;;;;;4905841;29;20040;-91
2021/12/16 13:40:03;;;;;;;35.63;17.17;;;9.10;99.90;;;;;;4897215;29;20064;-91
2021/12/16 13:42:51;;;;;;;37.55;17.02;;;9.10;99.90;;;;;;4889477;29;20036;-89
2021/12/16 13:45:26;;;;;;;25.33;15.85;;;9.10;99.90;;;;;;4899655;29;20024;-89
2021/12/16 14:07:55;;;;;;;36.63;22.17;;;8.90;99.90;;;;;;4925011;29;20096;-89
2021/12/16 14:10:56;;;;;;;38.42;21.42;;;8.90;99.90;;;;;;4912811;29;20369;-87
2021/12/16 14:17:08;;;;;;;37.47;20.10;;;9.00;99.90;;;;;;4918779;29;20055;-90
2021/12/16 14:25:37;;;;;;;38.85;20.58;;;9.00;99.90;;;;;;4906863;29;20075;-90
2021/12/16 14:39:28;;;;;;;34.70;19.75;;;9.00;99.90;;;;;;4915997;29;20055;-91
2021/12/16 14:47:16;;;;;;;41.47;21.02;;;9.00;99.90;;;;;;4915626;29;20059;-89
2021/12/16 14:49:46;;;;;;;36.13;20.33;;;9.00;99.90;;;;;;4897655;29;20048;-88
2021/12/16 14:52:19;;;;;;;39.17;20.15;;;9.00;99.90;;;;;;4897353;29;20071;-87
2021/12/16 14:54:49;;;;;;;34.33;19.15;;;9.00;99.90;;;;;;4914055;29;20028;-88
2021/12/16 14:57:21;;;;;;;40.92;21.73;;;8.90;99.90;;;;;;4897842;29;20044;-87
2021/12/16 14:59:47;;;;;;;39.78;21.33;;;9.00;99.90;;;;;;4898595;29;20112;-87
2021/12/16 15:02:16;;;;;;;39.17;21.52;;;8.90;99.90;;;;;;4914338;29;20408;-88
2021/12/16 15:04:41;;;;;;;41.40;21.52;;;9.00;99.90;;;;;;4897975;29;20584;-87
2021/12/16 15:07:10;;;;;;;39.00;20.83;;;8.90;99.90;;;;;;4897728;29;20029;-88
2021/12/16 15:09:39;;;;;;;38.75;19.98;;;8.90;99.90;;;;;;4896068;29;20103;-89
2021/12/16 15:12:28;;;;;;;44.08;21.60;;;8.90;99.90;;;;;;4898748;29;20055;-88
2021/12/16 15:15:11;;;;;;;36.70;20.20;;;8.90;99.90;;;;;;4897806;29;20375;-90
2021/12/16 15:44:58;;;;;;;36.95;18.83;;;8.90;99.90;;;;;;4915989;29;20106;-88
2021/12/16 15:47:24;;;;;;;34.90;19.13;;;8.90;99.90;;;;;;4919229;29;20104;-87
2021/12/16 15:49:52;;;;;;;38.17;19.88;;;8.90;99.90;;;;;;4915143;29;20115;-90
2021/12/16 15:52:18;;;;;;;37.97;20.10;;;8.90;99.90;;;;;;4886497;29;20068;-88
2021/12/16 15:54:48;;;;;;;40.55;20.20;;;8.90;99.90;;;;;;4904491;29;20128;-89
2021/12/16 15:57:16;;;;;;;34.22;19.58;;;8.90;99.90;;;;;;4900684;29;20366;-88
2021/12/16 15:59:47;;;;;;;36.92;19.15;;;8.90;99.90;;;;;;4899212;29;20028;-87
2021/12/16 16:02:16;;;;;;;39.45;20.27;;;8.80;99.90;;;;;;4900759;29;20430;-88
2021/12/16 16:04:42;;;;;;;37.40;21.02;;;8.80;99.90;;;;;;4904970;29;20063;-87
2021/12/16 16:07:13;;;;;;;38.72;19.38;;;8.80;99.90;;;;;;4924790;29;20455;-92
2021/12/16 16:09:43;;;;;;;43.03;20.58;;;8.80;99.90;;;;;;4905000;29;20052;-86
2021/12/16 16:12:15;;;;;;;38.60;19.90;;;8.80;99.90;;;;;;4914264;29;20043;-88
2021/12/16 16:14:44;;;;;;;41.90;19.55;;;8.80;99.90;;;;;;4898771;29;20123;-88
2021/12/16 16:17:15;;;;;;;33.03;19.88;;;8.80;99.90;;;;;;4905542;29;20445;-89
2021/12/16 16:19:45;;;;;;;36.35;18.88;;;8.80;99.90;;;;;;4886222;29;20040;-87
2021/12/16 16:22:11;;;;;;;43.30;19.75;;;8.80;99.90;;;;;;4896673;29;20032;-91
2021/12/16 16:24:47;;;;;;;37.20;19.42;;;8.80;99.90;;;;;;4887864;29;20040;-89
2021/12/16 16:27:19;;;;;;;38.63;19.00;;;8.80;99.90;;;;;;4899154;29;20036;-91
2021/12/16 16:29:52;;;;;;;35.85;19.58;;;8.80;99.90;;;;;;4898891;29;20111;-91
2021/12/16 16:32:19;;;;;;;36.25;18.95;;;8.80;99.90;;;;;;4900003;29;20471;-89
2021/12/16 16:34:48;;;;;;;34.28;19.00;;;8.70;99.90;;;;;;4899264;29;20051;-89
2021/12/16 16:37:22;;;;;;;38.08;19.40;;;8.70;99.90;;;;;;4898496;29;20035;-87
2021/12/16 16:39:55;;;;;;;45.05;21.25;;;8.70;99.90;;;;;;4898744;29;20084;-91
2021/12/16 16:42:24;;;;;;;;;;;8.70;99.90;;;;;;4900336;29;20024;-91
2021/12/16 16:44:53;;;;;;;30.90;18.10;;;8.70;99.90;;;;;;4899434;29;19919;-90
2021/12/16 16:47:32;;;;;;;29.23;18.75;;;8.70;99.90;;;;;;4895522;29;20080;-89
2021/12/16 16:49:58;;;;;;;32.78;19.63;;;8.70;99.90;;;;;;4896207;29;20032;-87
2021/12/16 16:52:31;;;;;;;38.17;20.40;;;8.70;99.90;;;;;;4895157;29;20020;-89
2021/12/16 16:55:31;;;;;;;47.90;20.50;;;8.70;99.90;;;;;;4895684;29;20088;-92